sensor_id;sensor_type;location;lat;lon;timestamp;pressure;altitude;pressure_sealevel;temperature;humidity
13869;BME280;7004;48.206;16.402;2024-03-08T00:01:36;100151.19;;;4.33;88.76
13869;BME280;7004;48.206;16.402;2024-03-08T00:04:02;100157.91;;;4.13;90.06
13869;BME280;7004;48.206;16.402;2024-03-08T00:06:29;100145.91;;;4.06;90.20
13869;BME280;7004;48.206;16.402;2024-03-08T00:08:56;100148.16;;;4.19;89.46
13869;BME280;7004;48.206;16.402;2024-03-08T00:11:22;100155.63;;;4.03;90.78
13869;BME280;7004;48.206;16.402;2024-03-08T00:13:54;100152.69;;;4.42;90.14
13869;BME280;7004;48.206;16.402;2024-03-08T00:16:21;100153.31;;;4.22;90.00
13869;BME280;7004;48.206;16.402;2024-03-08T00:18:49;100149.28;;;3.82;91.87
13869;BME280;7004;48.206;16.402;2024-03-08T00:21:16;100155.31;;;4.13;92.09
13869;BME280;7004;48.206;16.402;2024-03-08T00:23:42;100147.31;;;4.18;91.06
13869;BME280;7004;48.206;16.402;2024-03-08T00:26:09;100152.34;;;4.52;90.06
13869;BME280;7004;48.206;16.402;2024-03-08T00:28:36;100155.19;;;4.46;90.62
13869;BME280;7004;48.206;16.402;2024-03-08T00:31:03;100151.63;;;4.19;91.32
13869;BME280;7004;48.206;16.402;2024-03-08T00:33:30;100147.00;;;3.99;91.05
13869;BME280;7004;48.206;16.402;2024-03-08T00:35:57;100157.41;;;4.01;91.60
13869;BME280;7004;48.206;16.402;2024-03-08T00:38:23;100156.44;;;4.05;91.55
13869;BME280;7004;48.206;16.402;2024-03-08T00:40:49;100150.78;;;4.19;91.85
13869;BME280;7004;48.206;16.402;2024-03-08T00:43:15;100149.38;;;4.07;91.58
13869;BME280;7004;48.206;16.402;2024-03-08T00:45:42;100151.19;;;4.33;91.04
13869;BME280;7004;48.206;16.402;2024-03-08T00:48:10;100144.31;;;4.30;92.01
13869;BME280;7004;48.206;16.402;2024-03-08T00:50:37;100143.69;;;4.22;91.68
13869;BME280;7004;48.206;16.402;2024-03-08T00:53:03;100142.41;;;3.78;92.81
13869;BME280;7004;48.206;16.402;2024-03-08T00:55:30;100139.06;;;3.72;92.95
13869;BME280;7004;48.206;16.402;2024-03-08T00:57:57;100140.50;;;3.83;94.72
13869;BME280;7004;48.206;16.402;2024-03-08T01:00:23;100141.75;;;3.99;93.84
13869;BME280;7004;48.206;16.402;2024-03-08T01:02:50;100139.16;;;3.69;96.11
13869;BME280;7004;48.206;16.402;2024-03-08T01:05:17;100135.63;;;3.70;97.23
13869;BME280;7004;48.206;16.402;2024-03-08T01:07:44;100133.16;;;3.66;97.13
13869;BME280;7004;48.206;16.402;2024-03-08T01:10:13;100138.16;;;3.42;98.75
13869;BME280;7004;48.206;16.402;2024-03-08T01:12:40;100127.38;;;3.55;99.63
13869;BME280;7004;48.206;16.402;2024-03-08T01:15:10;100127.44;;;3.83;98.20
13869;BME280;7004;48.206;16.402;2024-03-08T01:17:38;100125.81;;;3.47;99.72
13869;BME280;7004;48.206;16.402;2024-03-08T01:20:07;100129.66;;;3.65;99.23
13869;BME280;7004;48.206;16.402;2024-03-08T01:22:33;100121.28;;;3.84;99.38
13869;BME280;7004;48.206;16.402;2024-03-08T01:24:59;100123.28;;;3.76;99.34
13869;BME280;7004;48.206;16.402;2024-03-08T01:27:26;100120.94;;;3.66;100.00
13869;BME280;7004;48.206;16.402;2024-03-08T01:29:53;100115.03;;;3.28;100.00
13869;BME280;7004;48.206;16.402;2024-03-08T01:32:19;100113.44;;;3.54;100.00
13869;BME280;7004;48.206;16.402;2024-03-08T01:34:45;100110.38;;;3.69;100.00
13869;BME280;7004;48.206;16.402;2024-03-08T01:37:12;100107.75;;;3.71;100.00
13869;BME280;7004;48.206;16.402;2024-03-08T01:39:41;100109.13;;;3.22;100.00
13869;BME280;7004;48.206;16.402;2024-03-08T01:42:07;100108.69;;;3.37;100.00
13869;BME280;7004;48.206;16.402;2024-03-08T01:44:33;100102.34;;;3.46;100.00
13869;BME280;7004;48.206;16.402;2024-03-08T01:47:00;100101.75;;;3.36;100.00
13869;BME280;7004;48.206;16.402;2024-03-08T01:49:27;100107.91;;;3.34;100.00
13869;BME280;7004;48.206;16.402;2024-03-08T01:51:54;100103.19;;;3.48;100.00
13869;BME280;7004;48.206;16.402;2024-03-08T01:54:23;100104.06;;;3.47;100.00
13869;BME280;7004;48.206;16.402;2024-03-08T01:56:50;100105.69;;;3.51;100.00
13869;BME280;7004;48.206;16.402;2024-03-08T01:59:17;100099.31;;;3.30;100.00
13869;BME280;7004;48.206;16.402;2024-03-08T02:01:44;100109.19;;;3.19;100.00
13869;BME280;7004;48.206;16.402;2024-03-08T02:04:10;100099.03;;;3.70;100.00
13869;BME280;7004;48.206;16.402;2024-03-08T02:06:37;100100.69;;;3.43;100.00
13869;BME280;7004;48.206;16.402;2024-03-08T02:09:04;100097.63;;;2.95;100.00
13869;BME280;7004;48.206;16.402;2024-03-08T02:11:34;100100.59;;;3.15;100.00
13869;BME280;7004;48.206;16.402;2024-03-08T02:14:02;100107.84;;;3.04;100.00
13869;BME280;7004;48.206;16.402;2024-03-08T02:16:28;100106.00;;;3.08;100.00
13869;BME280;7004;48.206;16.402;2024-03-08T02:18:55;100096.63;;;3.32;100.00
13869;BME280;7004;48.206;16.402;2024-03-08T02:21:22;100099.66;;;3.49;100.00
13869;BME280;7004;48.206;16.402;2024-03-08T02:23:48;100101.00;;;3.62;100.00
13869;BME280;7004;48.206;16.402;2024-03-08T02:26:18;100101.19;;;3.56;100.00
13869;BME280;7004;48.206;16.402;2024-03-08T02:28:45;100097.31;;;3.69;100.00
13869;BME280;7004;48.206;16.402;2024-03-08T02:31:11;100100.78;;;3.70;100.00
13869;BME280;7004;48.206;16.402;2024-03-08T02:33:38;100098.84;;;3.77;100.00
13869;BME280;7004;48.206;16.402;2024-03-08T02:36:06;100096.81;;;3.57;100.00
13869;BME280;7004;48.206;16.402;2024-03-08T02:38:32;100105.69;;;3.81;100.00
13869;BME280;7004;48.206;16.402;2024-03-08T02:40:58;100100.84;;;3.97;100.00
13869;BME280;7004;48.206;16.402;2024-03-08T02:43:26;100098.91;;;4.05;100.00
13869;BME280;7004;48.206;16.402;2024-03-08T02:45:53;100097.34;;;3.68;100.00
13869;BME280;7004;48.206;16.402;2024-03-08T02:48:19;100092.44;;;3.57;100.00
13869;BME280;7004;48.206;16.402;2024-03-08T02:50:47;100093.47;;;3.81;100.00
13869;BME280;7004;48.206;16.402;2024-03-08T02:53:14;100087.72;;;3.70;100.00
13869;BME280;7004;48.206;16.402;2024-03-08T02:55:41;100092.59;;;3.82;100.00
13869;BME280;7004;48.206;16.402;2024-03-08T02:58:08;100085.97;;;3.99;100.00
13869;BME280;7004;48.206;16.402;2024-03-08T03:00:37;100088.09;;;4.15;100.00
13869;BME280;7004;48.206;16.402;2024-03-08T03:03:04;100086.94;;;3.96;100.00
13869;BME280;7004;48.206;16.402;2024-03-08T03:05:31;100092.88;;;4.01;100.00
13869;BME280;7004;48.206;16.402;2024-03-08T03:07:57;100094.19;;;3.86;100.00
13869;BME280;7004;48.206;16.402;2024-03-08T03:10:28;100098.47;;;3.59;100.00
13869;BME280;7004;48.206;16.402;2024-03-08T03:12:56;100088.84;;;3.61;100.00
13869;BME280;7004;48.206;16.402;2024-03-08T03:15:23;100086.97;;;3.66;100.00
13869;BME280;7004;48.206;16.402;2024-03-08T03:17:50;100089.66;;;3.63;100.00
13869;BME280;7004;48.206;16.402;2024-03-08T03:20:36;100088.94;;;3.88;100.00
13869;BME280;7004;48.206;16.402;2024-03-08T03:23:10;100083.44;;;3.38;100.00
13869;BME280;7004;48.206;16.402;2024-03-08T03:25:40;100085.31;;;3.33;100.00
13869;BME280;7004;48.206;16.402;2024-03-08T03:28:14;100081.47;;;3.13;100.00
13869;BME280;7004;48.206;16.402;2024-03-08T03:30:45;100088.00;;;3.61;100.00
13869;BME280;7004;48.206;16.402;2024-03-08T03:33:13;100081.63;;;3.69;100.00
13869;BME280;7004;48.206;16.402;2024-03-08T03:35:41;100077.94;;;3.77;100.00
13869;BME280;7004;48.206;16.402;2024-03-08T03:38:13;100077.41;;;3.93;100.00
13869;BME280;7004;48.206;16.402;2024-03-08T03:40:44;100082.38;;;3.73;100.00
13869;BME280;7004;48.206;16.402;2024-03-08T03:43:19;100079.22;;;3.91;100.00
13869;BME280;7004;48.206;16.402;2024-03-08T03:45:50;100074.47;;;4.04;100.00
13869;BME280;7004;48.206;16.402;2024-03-08T03:48:16;100087.16;;;3.88;100.00
13869;BME280;7004;48.206;16.402;2024-03-08T03:50:44;100077.53;;;3.89;100.00
13869;BME280;7004;48.206;16.402;2024-03-08T03:53:10;100075.66;;;3.66;100.00
13869;BME280;7004;48.206;16.402;2024-03-08T03:55:37;100076.31;;;3.43;100.00
13869;BME280;7004;48.206;16.402;2024-03-08T03:58:05;100079.06;;;3.37;100.00
13869;BME280;7004;48.206;16.402;2024-03-08T04:00:32;100078.94;;;3.43;100.00
13869;BME280;7004;48.206;16.402;2024-03-08T04:02:59;100075.00;;;3.26;100.00
13869;BME280;7004;48.206;16.402;2024-03-08T04:05:29;100076.53;;;3.65;100.00
13869;BME280;7004;48.206;16.402;2024-03-08T04:07:56;100078.00;;;3.44;100.00
13869;BME280;7004;48.206;16.402;2024-03-08T04:10:22;100077.97;;;3.14;100.00
13869;BME280;7004;48.206;16.402;2024-03-08T04:12:49;100073.63;;;3.44;100.00
13869;BME280;7004;48.206;16.402;2024-03-08T04:15:15;100077.22;;;3.71;100.00
13869;BME280;7004;48.206;16.402;2024-03-08T04:17:43;100067.13;;;3.59;100.00
13869;BME280;7004;48.206;16.402;2024-03-08T04:20:14;100076.97;;;3.49;100.00
13869;BME280;7004;48.206;16.402;2024-03-08T04:22:40;100070.75;;;3.83;100.00
13869;BME280;7004;48.206;16.402;2024-03-08T04:25:10;100067.28;;;3.83;100.00
13869;BME280;7004;48.206;16.402;2024-03-08T04:27:41;100075.50;;;3.70;100.00
13869;BME280;7004;48.206;16.402;2024-03-08T04:30:10;100072.50;;;3.83;100.00
13869;BME280;7004;48.206;16.402;2024-03-08T04:32:36;100076.81;;;3.84;100.00
13869;BME280;7004;48.206;16.402;2024-03-08T04:35:04;100067.41;;;3.78;100.00
13869;BME280;7004;48.206;16.402;2024-03-08T04:37:31;100063.75;;;3.84;100.00
13869;BME280;7004;48.206;16.402;2024-03-08T04:39:59;100065.63;;;3.80;100.00
13869;BME280;7004;48.206;16.402;2024-03-08T04:42:28;100065.19;;;3.94;100.00
13869;BME280;7004;48.206;16.402;2024-03-08T04:44:57;100067.97;;;3.89;100.00
13869;BME280;7004;48.206;16.402;2024-03-08T04:47:23;100063.75;;;3.84;100.00
13869;BME280;7004;48.206;16.402;2024-03-08T04:49:49;100068.97;;;3.84;100.00
13869;BME280;7004;48.206;16.402;2024-03-08T04:52:16;100063.31;;;3.71;100.00
13869;BME280;7004;48.206;16.402;2024-03-08T04:54:43;100069.06;;;3.82;100.00
13869;BME280;7004;48.206;16.402;2024-03-08T04:57:12;100077.66;;;3.86;100.00
13869;BME280;7004;48.206;16.402;2024-03-08T04:59:40;100071.72;;;3.51;100.00
13869;BME280;7004;48.206;16.402;2024-03-08T05:02:07;100076.06;;;3.80;100.00
13869;BME280;7004;48.206;16.402;2024-03-08T05:04:38;100072.25;;;3.62;100.00
13869;BME280;7004;48.206;16.402;2024-03-08T05:07:06;100075.31;;;3.47;100.00
13869;BME280;7004;48.206;16.402;2024-03-08T05:09:36;100077.03;;;3.78;100.00
13869;BME280;7004;48.206;16.402;2024-03-08T05:12:04;100074.97;;;3.59;100.00
13869;BME280;7004;48.206;16.402;2024-03-08T05:14:31;100072.81;;;3.74;100.00
13869;BME280;7004;48.206;16.402;2024-03-08T05:16:57;100063.91;;;3.79;100.00
13869;BME280;7004;48.206;16.402;2024-03-08T05:19:24;100068.84;;;3.29;100.00
13869;BME280;7004;48.206;16.402;2024-03-08T05:21:50;100070.19;;;3.74;100.00
13869;BME280;7004;48.206;16.402;2024-03-08T05:24:18;100072.47;;;3.84;100.00
13869;BME280;7004;48.206;16.402;2024-03-08T05:26:56;100075.34;;;3.75;100.00
13869;BME280;7004;48.206;16.402;2024-03-08T05:29:22;100065.84;;;4.02;100.00
13869;BME280;7004;48.206;16.402;2024-03-08T05:31:52;100069.28;;;3.75;100.00
13869;BME280;7004;48.206;16.402;2024-03-08T05:34:21;100069.41;;;3.70;100.00
13869;BME280;7004;48.206;16.402;2024-03-08T05:36:58;100070.34;;;3.67;100.00
13869;BME280;7004;48.206;16.402;2024-03-08T05:39:26;100073.25;;;3.86;100.00
13869;BME280;7004;48.206;16.402;2024-03-08T05:41:52;100075.44;;;3.74;100.00
13869;BME280;7004;48.206;16.402;2024-03-08T05:44:18;100074.44;;;4.06;100.00
13869;BME280;7004;48.206;16.402;2024-03-08T05:46:45;100074.31;;;3.81;100.00
13869;BME280;7004;48.206;16.402;2024-03-08T05:49:12;100080.97;;;3.91;100.00
13869;BME280;7004;48.206;16.402;2024-03-08T05:51:40;100079.94;;;3.68;100.00
13869;BME280;7004;48.206;16.402;2024-03-08T05:54:11;100082.34;;;3.75;100.00
13869;BME280;7004;48.206;16.402;2024-03-08T05:56:39;100081.03;;;3.60;100.00
13869;BME280;7004;48.206;16.402;2024-03-08T05:59:10;100074.69;;;3.97;100.00
13869;BME280;7004;48.206;16.402;2024-03-08T06:01:36;100076.59;;;3.91;100.00
13869;BME280;7004;48.206;16.402;2024-03-08T06:04:04;100076.91;;;3.82;100.00
13869;BME280;7004;48.206;16.402;2024-03-08T06:06:30;100075.00;;;3.58;100.00
13869;BME280;7004;48.206;16.402;2024-03-08T06:08:56;100080.91;;;3.35;100.00
13869;BME280;7004;48.206;16.402;2024-03-08T06:11:22;100086.16;;;3.33;100.00
13869;BME280;7004;48.206;16.402;2024-03-08T06:13:49;100082.72;;;3.62;100.00
13869;BME280;7004;48.206;16.402;2024-03-08T06:16:16;100086.75;;;3.72;100.00
13869;BME280;7004;48.206;16.402;2024-03-08T06:18:42;100082.75;;;3.90;100.00
13869;BME280;7004;48.206;16.402;2024-03-08T06:21:08;100078.78;;;3.77;100.00
13869;BME280;7004;48.206;16.402;2024-03-08T06:23:38;100081.00;;;3.61;100.00
13869;BME280;7004;48.206;16.402;2024-03-08T06:26:07;100080.88;;;3.66;100.00
13869;BME280;7004;48.206;16.402;2024-03-08T06:28:34;100081.22;;;3.54;100.00
13869;BME280;7004;48.206;16.402;2024-03-08T06:31:01;100085.69;;;3.80;100.00
13869;BME280;7004;48.206;16.402;2024-03-08T06:33:29;100084.06;;;4.04;100.00
13869;BME280;7004;48.206;16.402;2024-03-08T06:35:56;100090.47;;;3.95;100.00
13869;BME280;7004;48.206;16.402;2024-03-08T06:38:24;100097.84;;;3.81;100.00
13869;BME280;7004;48.206;16.402;2024-03-08T06:40:51;100095.06;;;3.87;100.00
13869;BME280;7004;48.206;16.402;2024-03-08T06:43:18;100094.81;;;4.23;100.00
13869;BME280;7004;48.206;16.402;2024-03-08T06:45:45;100098.94;;;4.31;100.00
13869;BME280;7004;48.206;16.402;2024-03-08T06:48:16;100093.25;;;4.17;100.00
13869;BME280;7004;48.206;16.402;2024-03-08T06:50:47;100089.44;;;4.27;100.00
13869;BME280;7004;48.206;16.402;2024-03-08T06:53:13;100096.78;;;4.44;100.00
13869;BME280;7004;48.206;16.402;2024-03-08T06:55:40;100091.94;;;4.32;100.00
13869;BME280;7004;48.206;16.402;2024-03-08T06:58:06;100089.97;;;3.82;100.00
13869;BME280;7004;48.206;16.402;2024-03-08T07:00:33;100094.34;;;3.82;100.00
13869;BME280;7004;48.206;16.402;2024-03-08T07:02:59;100092.75;;;4.06;100.00
13869;BME280;7004;48.206;16.402;2024-03-08T07:05:29;100094.44;;;4.07;100.00
13869;BME280;7004;48.206;16.402;2024-03-08T07:07:56;100087.38;;;4.10;100.00
13869;BME280;7004;48.206;16.402;2024-03-08T07:10:25;100085.84;;;4.03;100.00
13869;BME280;7004;48.206;16.402;2024-03-08T07:12:52;100092.28;;;3.91;100.00
13869;BME280;7004;48.206;16.402;2024-03-08T07:15:19;100085.47;;;4.15;100.00
13869;BME280;7004;48.206;16.402;2024-03-08T07:17:49;100090.59;;;3.90;100.00
13869;BME280;7004;48.206;16.402;2024-03-08T07:20:15;100086.97;;;4.23;100.00
13869;BME280;7004;48.206;16.402;2024-03-08T07:22:46;100083.19;;;4.59;100.00
13869;BME280;7004;48.206;16.402;2024-03-08T07:25:18;100085.31;;;4.20;100.00
13869;BME280;7004;48.206;16.402;2024-03-08T07:27:48;100080.41;;;4.37;100.00
13869;BME280;7004;48.206;16.402;2024-03-08T07:30:15;100086.59;;;4.07;100.00
13869;BME280;7004;48.206;16.402;2024-03-08T07:33:00;100089.81;;;4.15;100.00
13869;BME280;7004;48.206;16.402;2024-03-08T07:35:29;100084.69;;;4.12;100.00
13869;BME280;7004;48.206;16.402;2024-03-08T07:37:55;100092.72;;;4.07;100.00
13869;BME280;7004;48.206;16.402;2024-03-08T07:40:22;100092.44;;;4.15;100.00
13869;BME280;7004;48.206;16.402;2024-03-08T07:42:49;100095.22;;;4.38;100.00
13869;BME280;7004;48.206;16.402;2024-03-08T07:45:16;100094.19;;;4.43;100.00
13869;BME280;7004;48.206;16.402;2024-03-08T07:47:43;100097.16;;;4.32;100.00
13869;BME280;7004;48.206;16.402;2024-03-08T07:50:09;100098.59;;;4.14;100.00
13869;BME280;7004;48.206;16.402;2024-03-08T07:52:36;100098.81;;;4.61;100.00
13869;BME280;7004;48.206;16.402;2024-03-08T07:55:03;100099.53;;;4.11;100.00
13869;BME280;7004;48.206;16.402;2024-03-08T07:57:32;100091.13;;;4.30;100.00
13869;BME280;7004;48.206;16.402;2024-03-08T07:59:59;100100.03;;;4.51;100.00
13869;BME280;7004;48.206;16.402;2024-03-08T08:02:25;100102.84;;;4.18;100.00
13869;BME280;7004;48.206;16.402;2024-03-08T08:04:51;100098.91;;;4.59;100.00
13869;BME280;7004;48.206;16.402;2024-03-08T08:07:17;100102.38;;;4.60;100.00
13869;BME280;7004;48.206;16.402;2024-03-08T08:09:43;100103.56;;;4.50;100.00
13869;BME280;7004;48.206;16.402;2024-03-08T08:12:09;100101.09;;;4.45;100.00
13869;BME280;7004;48.206;16.402;2024-03-08T08:14:39;100099.75;;;4.60;100.00
13869;BME280;7004;48.206;16.402;2024-03-08T08:17:05;100105.59;;;4.42;100.00
13869;BME280;7004;48.206;16.402;2024-03-08T08:19:35;100098.06;;;4.31;100.00
13869;BME280;7004;48.206;16.402;2024-03-08T08:22:04;100102.47;;;4.57;100.00
13869;BME280;7004;48.206;16.402;2024-03-08T08:24:30;100101.09;;;4.72;100.00
13869;BME280;7004;48.206;16.402;2024-03-08T08:26:57;100102.66;;;4.51;100.00
13869;BME280;7004;48.206;16.402;2024-03-08T08:29:23;100100.19;;;4.73;100.00
13869;BME280;7004;48.206;16.402;2024-03-08T08:31:49;100102.75;;;4.74;100.00
13869;BME280;7004;48.206;16.402;2024-03-08T08:34:16;100103.59;;;4.48;100.00
13869;BME280;7004;48.206;16.402;2024-03-08T08:36:45;100104.88;;;4.36;100.00
13869;BME280;7004;48.206;16.402;2024-03-08T08:39:11;100098.25;;;4.25;100.00
13869;BME280;7004;48.206;16.402;2024-03-08T08:41:39;100107.78;;;4.54;100.00
13869;BME280;7004;48.206;16.402;2024-03-08T08:44:12;100103.78;;;4.70;100.00
13869;BME280;7004;48.206;16.402;2024-03-08T08:46:39;100106.78;;;4.31;100.00
13869;BME280;7004;48.206;16.402;2024-03-08T08:49:05;100097.47;;;4.49;100.00
13869;BME280;7004;48.206;16.402;2024-03-08T08:51:34;100101.91;;;4.47;100.00
13869;BME280;7004;48.206;16.402;2024-03-08T08:54:01;100097.31;;;4.54;100.00
13869;BME280;7004;48.206;16.402;2024-03-08T08:56:27;100096.41;;;4.28;100.00
13869;BME280;7004;48.206;16.402;2024-03-08T08:58:54;100101.91;;;4.47;100.00
13869;BME280;7004;48.206;16.402;2024-03-08T09:01:20;100100.09;;;4.49;100.00
13869;BME280;7004;48.206;16.402;2024-03-08T09:03:46;100106.13;;;4.51;100.00
13869;BME280;7004;48.206;16.402;2024-03-08T09:06:13;100095.41;;;4.59;100.00
13869;BME280;7004;48.206;16.402;2024-03-08T09:08:39;100096.25;;;4.33;100.00
13869;BME280;7004;48.206;16.402;2024-03-08T09:11:06;100088.91;;;4.71;100.00
13869;BME280;7004;48.206;16.402;2024-03-08T09:13:32;100094.84;;;4.76;100.00
13869;BME280;7004;48.206;16.402;2024-03-08T09:16:02;100094.19;;;4.43;100.00
13869;BME280;7004;48.206;16.402;2024-03-08T09:18:31;100088.50;;;4.83;100.00
13869;BME280;7004;48.206;16.402;2024-03-08T09:20:58;100087.97;;;4.98;100.00
13869;BME280;7004;48.206;16.402;2024-03-08T09:23:25;100084.97;;;4.84;100.00
13869;BME280;7004;48.206;16.402;2024-03-08T09:25:57;100083.38;;;4.80;100.00
13869;BME280;7004;48.206;16.402;2024-03-08T09:28:23;100083.72;;;4.69;100.00
13869;BME280;7004;48.206;16.402;2024-03-08T09:30:50;100085.19;;;5.03;99.02
13869;BME280;7004;48.206;16.402;2024-03-08T09:33:16;100081.47;;;4.85;99.51
13869;BME280;7004;48.206;16.402;2024-03-08T09:35:46;100087.38;;;4.90;100.00
13869;BME280;7004;48.206;16.402;2024-03-08T09:38:14;100091.88;;;4.87;100.00
13869;BME280;7004;48.206;16.402;2024-03-08T09:40:41;100080.59;;;4.58;100.00
13869;BME280;7004;48.206;16.402;2024-03-08T09:43:11;100087.88;;;5.01;100.00
13869;BME280;7004;48.206;16.402;2024-03-08T09:45:38;100086.63;;;5.12;99.23
13869;BME280;7004;48.206;16.402;2024-03-08T09:48:16;100081.34;;;4.88;100.00
13869;BME280;7004;48.206;16.402;2024-03-08T09:50:45;100076.03;;;4.65;100.00
13869;BME280;7004;48.206;16.402;2024-03-08T09:53:12;100076.28;;;4.82;100.00
13869;BME280;7004;48.206;16.402;2024-03-08T09:55:39;100077.16;;;5.08;100.00
13869;BME280;7004;48.206;16.402;2024-03-08T09:58:15;100074.97;;;4.95;100.00
13869;BME280;7004;48.206;16.402;2024-03-08T10:00:43;100072.44;;;4.92;100.00
13869;BME280;7004;48.206;16.402;2024-03-08T10:03:10;100072.88;;;5.54;99.79
13869;BME280;7004;48.206;16.402;2024-03-08T10:05:36;100064.75;;;5.13;100.00
13869;BME280;7004;48.206;16.402;2024-03-08T10:08:03;100068.22;;;5.13;100.00
13869;BME280;7004;48.206;16.402;2024-03-08T10:10:30;100068.16;;;5.40;99.98
13869;BME280;7004;48.206;16.402;2024-03-08T10:12:58;100066.03;;;5.50;100.00
13869;BME280;7004;48.206;16.402;2024-03-08T10:15:27;100071.06;;;4.82;100.00
13869;BME280;7004;48.206;16.402;2024-03-08T10:17:57;100064.66;;;5.39;100.00
13869;BME280;7004;48.206;16.402;2024-03-08T10:20:24;100063.94;;;5.59;99.98
13869;BME280;7004;48.206;16.402;2024-03-08T10:22:50;100069.75;;;5.44;100.00
13869;BME280;7004;48.206;16.402;2024-03-08T10:25:17;100062.63;;;5.24;100.00
13869;BME280;7004;48.206;16.402;2024-03-08T10:27:43;100061.13;;;5.64;100.00
13869;BME280;7004;48.206;16.402;2024-03-08T10:30:16;100060.59;;;5.56;98.76
13869;BME280;7004;48.206;16.402;2024-03-08T10:32:46;100061.53;;;5.30;99.66
13869;BME280;7004;48.206;16.402;2024-03-08T10:35:14;100068.44;;;5.56;99.50
13869;BME280;7004;48.206;16.402;2024-03-08T10:37:49;100061.75;;;5.70;99.24
13869;BME280;7004;48.206;16.402;2024-03-08T10:40:25;100068.09;;;5.65;97.56
13869;BME280;7004;48.206;16.402;2024-03-08T10:42:55;100063.25;;;5.31;98.61
13869;BME280;7004;48.206;16.402;2024-03-08T10:45:38;100066.09;;;5.24;100.00
13869;BME280;7004;48.206;16.402;2024-03-08T10:48:32;100066.38;;;5.64;98.33
13869;BME280;7004;48.206;16.402;2024-03-08T10:51:03;100061.47;;;5.78;99.04
13869;BME280;7004;48.206;16.402;2024-03-08T10:53:30;100063.84;;;6.08;97.49
13869;BME280;7004;48.206;16.402;2024-03-08T10:55:57;100061.22;;;6.30;95.16
13869;BME280;7004;48.206;16.402;2024-03-08T10:58:26;100048.53;;;6.41;93.80
13869;BME280;7004;48.206;16.402;2024-03-08T11:00:57;100049.72;;;6.54;92.59
13869;BME280;7004;48.206;16.402;2024-03-08T11:06:19;100041.38;;;7.83;87.99
13869;BME280;7004;48.206;16.402;2024-03-08T11:08:49;100034.19;;;7.49;87.51
13869;BME280;7004;48.206;16.402;2024-03-08T11:11:28;100032.88;;;7.96;86.52
13869;BME280;7004;48.206;16.402;2024-03-08T11:13:57;100026.44;;;8.39;83.62
13869;BME280;7004;48.206;16.402;2024-03-08T11:21:43;100009.69;;;8.40;82.74
13869;BME280;7004;48.206;16.402;2024-03-08T11:24:14;100012.31;;;8.04;84.98
13869;BME280;7004;48.206;16.402;2024-03-08T11:26:45;100021.38;;;7.79;87.01
13869;BME280;7004;48.206;16.402;2024-03-08T11:32:15;100011.19;;;7.15;87.05
13869;BME280;7004;48.206;16.402;2024-03-08T11:34:47;100010.13;;;6.59;88.13
13869;BME280;7004;48.206;16.402;2024-03-08T11:37:17;100016.88;;;6.44;89.14
13869;BME280;7004;48.206;16.402;2024-03-08T11:39:52;100010.63;;;6.47;88.04
13869;BME280;7004;48.206;16.402;2024-03-08T11:42:19;100000.34;;;6.83;87.31
13869;BME280;7004;48.206;16.402;2024-03-08T11:44:46;99997.63;;;6.85;89.15
13869;BME280;7004;48.206;16.402;2024-03-08T11:47:15;99994.47;;;6.56;87.55
13869;BME280;7004;48.206;16.402;2024-03-08T11:49:42;99991.66;;;6.61;89.49
13869;BME280;7004;48.206;16.402;2024-03-08T11:52:11;99988.84;;;6.86;89.12
13869;BME280;7004;48.206;16.402;2024-03-08T11:55:01;99987.53;;;6.75;88.95
13869;BME280;7004;48.206;16.402;2024-03-08T11:57:29;99983.38;;;6.90;88.17
13869;BME280;7004;48.206;16.402;2024-03-08T11:59:56;99981.28;;;6.78;88.37
13869;BME280;7004;48.206;16.402;2024-03-08T12:02:36;99990.94;;;6.98;86.50
13869;BME280;7004;48.206;16.402;2024-03-08T12:05:04;99986.69;;;7.14;87.01
13869;BME280;7004;48.206;16.402;2024-03-08T12:07:32;99983.47;;;7.08;86.61
13869;BME280;7004;48.206;16.402;2024-03-08T12:10:19;99979.50;;;6.78;86.40
13869;BME280;7004;48.206;16.402;2024-03-08T12:12:52;99980.03;;;6.87;88.18
13869;BME280;7004;48.206;16.402;2024-03-08T12:15:22;99978.38;;;6.64;87.03
13869;BME280;7004;48.206;16.402;2024-03-08T12:17:52;99978.06;;;6.71;88.03
13869;BME280;7004;48.206;16.402;2024-03-08T12:20:24;99972.97;;;6.87;86.09
13869;BME280;7004;48.206;16.402;2024-03-08T12:22:53;99969.59;;;6.65;88.22
13869;BME280;7004;48.206;16.402;2024-03-08T12:25:20;99974.13;;;6.41;87.23
13869;BME280;7004;48.206;16.402;2024-03-08T12:27:47;99976.03;;;6.78;87.67
13869;BME280;7004;48.206;16.402;2024-03-08T12:30:24;99972.69;;;6.54;86.63
13869;BME280;7004;48.206;16.402;2024-03-08T12:32:58;99969.41;;;6.49;86.36
13869;BME280;7004;48.206;16.402;2024-03-08T12:35:27;99968.75;;;6.64;85.56
13869;BME280;7004;48.206;16.402;2024-03-08T12:37:56;99964.06;;;6.91;85.25
13869;BME280;7004;48.206;16.402;2024-03-08T12:40:32;99960.31;;;6.76;85.02
13869;BME280;7004;48.206;16.402;2024-03-08T12:43:01;99956.91;;;7.14;83.30
13869;BME280;7004;48.206;16.402;2024-03-08T12:45:28;99958.53;;;6.77;83.92
13869;BME280;7004;48.206;16.402;2024-03-08T12:47:55;99963.88;;;6.75;83.31
13869;BME280;7004;48.206;16.402;2024-03-08T12:50:23;99961.31;;;6.74;82.70
13869;BME280;7004;48.206;16.402;2024-03-08T12:52:51;99957.66;;;6.57;83.14
13869;BME280;7004;48.206;16.402;2024-03-08T12:55:18;99948.34;;;6.90;82.75
13869;BME280;7004;48.206;16.402;2024-03-08T12:57:45;99955.44;;;7.08;82.54
13869;BME280;7004;48.206;16.402;2024-03-08T13:00:13;99965.09;;;6.87;81.39
13869;BME280;7004;48.206;16.402;2024-03-08T13:02:48;99957.16;;;6.89;81.35
13869;BME280;7004;48.206;16.402;2024-03-08T13:05:15;99954.50;;;6.70;82.14
13869;BME280;7004;48.206;16.402;2024-03-08T13:07:42;99951.41;;;6.81;81.64
13869;BME280;7004;48.206;16.402;2024-03-08T13:10:15;99951.66;;;6.74;81.87
13869;BME280;7004;48.206;16.402;2024-03-08T13:12:45;99943.81;;;6.93;80.82